Bedford Park, Illinois
Current Conditions -  °F | °C
As of 5:53 AM on Monday 22 Dec 2014 (Local Time) from KMDW Reporting Station
Overcast Overcast  
Wind Chill: -3°   Ceiling: 5000
Heat Index:   Visibility: 10mi
Dew Point: -3°   Wind: 8mph
Humidity: 78%   Direction: 140°SE
Pressure: 29.95"   Gusts: NA
Location:  41.76°N, 87.8°W
Report Text: KMDW 221153Z 14007KT 10SM OVC050 01/M03 A2995 RMK AO2 SLP154 T00061028 10011 21006 56010 $
Loading
Personal Weather Stations






























Interactive Weather Map New forecast layout! Learn more

10-Day Weather Forecast

Advertisements
Track Severe Weather on mobile